createdAt,value
2017-07-09T00:00:39.463Z,30.79
2017-07-09T00:01:39.489Z,30.69
2017-07-09T00:02:39.850Z,30.76
2017-07-09T00:03:39.884Z,30.73
2017-07-09T00:04:39.909Z,30.73
2017-07-09T00:05:39.293Z,30.73
2017-07-09T00:06:39.657Z,30.76
2017-07-09T00:07:39.989Z,30.69
2017-07-09T00:08:40.030Z,30.73
2017-07-09T00:09:39.740Z,30.69
2017-07-09T00:10:39.771Z,30.75
2017-07-09T00:11:39.814Z,30.67
2017-07-09T00:12:40.155Z,30.72
2017-07-09T00:13:39.544Z,30.73
2017-07-09T00:14:40.520Z,30.79
2017-07-09T00:15:39.932Z,30.73
2017-07-09T00:16:40.277Z,30.73
2017-07-09T00:17:39.987Z,30.75
2017-07-09T00:18:40.027Z,30.69
2017-07-09T00:19:40.623Z,30.77
2017-07-09T00:20:40.409Z,30.69
2017-07-09T00:21:40.123Z,30.57
2017-07-09T00:22:40.156Z,30.6
2017-07-09T00:23:40.495Z,30.6
2017-07-09T00:24:40.779Z,30.7
2017-07-09T00:25:40.559Z,30.72
2017-07-09T00:26:40.586Z,30.58
2017-07-09T00:27:40.303Z,30.61
2017-07-09T00:28:40.339Z,30.7
2017-07-09T00:29:40.944Z,30.55
2017-07-09T00:30:40.721Z,30.72
2017-07-09T00:31:40.431Z,30.7
2017-07-09T00:32:40.783Z,30.7
2017-07-09T00:33:40.820Z,30.6
2017-07-09T00:34:40.780Z,30.69
2017-07-09T00:35:40.553Z,30.65
2017-07-09T00:36:40.582Z,30.67
2017-07-09T00:37:40.951Z,30.58
2017-07-09T00:38:40.329Z,30.62
2017-07-09T00:39:41.305Z,30.6
2017-07-09T00:40:41.032Z,30.62
2017-07-09T00:41:40.734Z,30.57
2017-07-09T00:42:40.455Z,30.54
2017-07-09T00:43:40.804Z,30.61
2017-07-09T00:44:41.409Z,30.55
2017-07-09T00:45:40.542Z,30.54
2017-07-09T00:46:41.217Z,30.53
2017-07-09T00:47:41.247Z,30.58
2017-07-09T00:48:40.960Z,30.47
2017-07-09T00:49:41.294Z,30.47
2017-07-09T00:50:41.022Z,30.49
2017-07-09T00:51:41.381Z,30.46
2017-07-09T00:52:41.085Z,30.45
2017-07-09T00:53:41.435Z,30.51
2017-07-09T00:54:41.401Z,30.46
2017-07-09T00:55:41.179Z,30.47
2017-07-09T00:56:40.895Z,30.45
2017-07-09T00:57:41.563Z,30.55
2017-07-09T00:58:40.949Z,30.42
2017-07-09T00:59:41.601Z,30.43
2017-07-09T01:00:41.010Z,30.38
2017-07-09T01:01:41.365Z,30.42
2017-07-09T01:02:41.401Z,30.37
2017-07-09T01:03:41.425Z,30.43
2017-07-09T01:04:41.752Z,30.43
2017-07-09T01:05:41.167Z,30.37
2017-07-09T01:06:41.839Z,30.46
2017-07-09T01:07:41.225Z,30.39
2017-07-09T01:08:41.585Z,30.43
2017-07-09T01:09:41.858Z,30.38
2017-07-09T01:10:41.970Z,30.38
2017-07-09T01:11:41.671Z,30.34
2017-07-09T01:12:42.025Z,30.35
2017-07-09T01:13:41.410Z,30.37
2017-07-09T01:14:42.333Z,30.45
2017-07-09T01:15:41.479Z,30.42
2017-07-09T01:16:42.152Z,30.34
2017-07-09T01:17:41.856Z,30.42
2017-07-09T01:18:42.206Z,30.34
2017-07-09T01:19:42.234Z,30.38
2017-07-09T01:20:42.263Z,30.37
2017-07-09T01:21:41.972Z,30.39
2017-07-09T01:22:42.002Z,30.32
2017-07-09T01:23:42.033Z,30.32
2017-07-09T01:24:42.076Z,30.22
2017-07-09T01:25:42.424Z,30.29
2017-07-09T01:26:41.816Z,30.39
2017-07-09T01:27:42.174Z,30.29
2017-07-09T01:28:42.197Z,30.27
2017-07-09T01:29:42.234Z,30.32
2017-07-09T01:30:42.259Z,30.24
2017-07-09T01:31:42.287Z,30.32
2017-07-09T01:32:42.702Z,30.27
2017-07-09T01:33:42.400Z,30.29
2017-07-09T01:34:42.374Z,30.31
2017-07-09T01:35:42.411Z,30.24
2017-07-09T01:36:42.445Z,30.32
2017-07-09T01:37:42.789Z,30.32
2017-07-09T01:38:42.826Z,30.27
2017-07-09T01:39:42.854Z,30.2
2017-07-09T01:40:42.560Z,30.2
2017-07-09T01:41:42.280Z,30.23
2017-07-09T01:42:42.950Z,30.19
2017-07-09T01:43:42.342Z,30.23
2017-07-09T01:44:42.375Z,30.19
2017-07-09T01:45:42.408Z,30.15
2017-07-09T01:46:43.068Z,30.22
2017-07-09T01:47:43.103Z,30.23
2017-07-09T01:48:43.126Z,30.19
2017-07-09T01:49:43.164Z,30.2
2017-07-09T01:50:42.558Z,30.23
2017-07-09T01:51:43.225Z,30.15
2017-07-09T01:52:42.941Z,30.16
2017-07-09T01:53:42.966Z,30.13
2017-07-09T01:54:43.323Z,30.17
2017-07-09T01:55:42.712Z,30.2
2017-07-09T01:56:43.065Z,30.1
2017-07-09T01:57:43.090Z,30.16
2017-07-09T01:58:43.447Z,30.15
2017-07-09T01:59:43.160Z,30.11
2017-07-09T02:00:43.180Z,30.22
2017-07-09T02:01:43.537Z,30.11
2017-07-09T02:02:43.576Z,30.17
2017-07-09T02:03:42.959Z,30.16
2017-07-09T02:04:43.320Z,30.16
2017-07-09T02:05:43.592Z,30.17
2017-07-09T02:06:43.696Z,30.16
2017-07-09T02:07:43.087Z,30.11
2017-07-09T02:08:43.760Z,30.08
2017-07-09T02:09:43.466Z,30.13
2017-07-09T02:10:43.797Z,30.13
2017-07-09T02:11:43.533Z,30.11
2017-07-09T02:12:43.559Z,30.1
2017-07-09T02:13:43.591Z,30.17
2017-07-09T02:14:43.936Z,30.16
2017-07-09T02:15:44.269Z,30.07
2017-07-09T02:16:43.679Z,30.15
2017-07-09T02:17:44.022Z,30.05
2017-07-09T02:18:43.744Z,30.11
2017-07-09T02:19:43.449Z,30.16
2017-07-09T02:20:43.779Z,30.15
2017-07-09T02:21:44.149Z,30.08
2017-07-09T02:22:44.178Z,30.1
2017-07-09T02:23:44.207Z,30.1
2017-07-09T02:24:44.236Z,30.1
2017-07-09T02:25:44.529Z,30.1
2017-07-09T02:26:44.299Z,30.1
2017-07-09T02:27:44.340Z,30.13
2017-07-09T02:28:44.044Z,30.11
2017-07-09T02:29:44.405Z,30.11
2017-07-09T02:30:44.682Z,30.11
2017-07-09T02:31:44.146Z,30.15
2017-07-09T02:32:43.848Z,30.15
2017-07-09T02:33:44.213Z,30.1
2017-07-09T02:34:43.913Z,30.16
2017-07-09T02:35:44.874Z,30.07
2017-07-09T02:36:44.295Z,30.15
2017-07-09T02:37:44.319Z,30.13
2017-07-09T02:38:44.036Z,30.07
2017-07-09T02:39:44.389Z,30.17
2017-07-09T02:40:44.715Z,30.15
2017-07-09T02:41:44.127Z,30.08
2017-07-09T02:42:44.163Z,30.13
2017-07-09T02:43:44.821Z,30.1
2017-07-09T02:44:44.860Z,30.01
2017-07-09T02:45:44.250Z,30.08
2017-07-09T02:46:44.605Z,30.02
2017-07-09T02:47:44.627Z,30.07
2017-07-09T02:48:44.664Z,30
2017-07-09T02:49:45.006Z,29.94
2017-07-09T02:50:44.731Z,30.13
2017-07-09T02:51:45.075Z,29.95
2017-07-09T02:52:45.184Z,29.97
2017-07-09T02:53:44.813Z,30
2017-07-09T02:54:44.530Z,29.95
2017-07-09T02:55:44.880Z,29.95
2017-07-09T02:56:44.911Z,30.04
2017-07-09T02:57:45.260Z,30.1
2017-07-09T02:58:44.966Z,29.98
2017-07-09T02:59:44.997Z,29.92
2017-07-09T03:00:45.338Z,30
2017-07-09T03:01:45.064Z,30.04
2017-07-09T03:02:45.405Z,30
2017-07-09T03:03:45.125Z,30
2017-07-09T03:04:45.477Z,29.98
2017-07-09T03:05:45.499Z,29.97
2017-07-09T03:06:45.528Z,29.95
2017-07-09T03:07:45.564Z,29.98
2017-07-09T03:08:44.963Z,30.02
2017-07-09T03:09:45.312Z,29.9
2017-07-09T03:10:45.028Z,29.98
2017-07-09T03:11:45.372Z,30.01
2017-07-09T03:12:45.409Z,29.97
2017-07-09T03:13:45.745Z,30
2017-07-09T03:14:45.142Z,29.95
2017-07-09T03:15:45.174Z,29.97
2017-07-09T03:16:45.512Z,29.95
2017-07-09T03:17:45.237Z,30.05
2017-07-09T03:18:45.905Z,29.95
2017-07-09T03:19:45.934Z,29.95
2017-07-09T03:20:45.639Z,29.97
2017-07-09T03:21:45.356Z,30
2017-07-09T03:22:46.089Z,29.95
2017-07-09T03:23:45.734Z,29.89
2017-07-09T03:24:46.091Z,30.01
2017-07-09T03:25:45.799Z,29.95
2017-07-09T03:26:46.165Z,29.95
2017-07-09T03:27:46.185Z,29.94
2017-07-09T03:28:46.206Z,29.9
2017-07-09T03:29:46.246Z,29.9
2017-07-09T03:30:46.271Z,29.92
2017-07-09T03:31:46.308Z,29.9
2017-07-09T03:32:46.334Z,29.9
2017-07-09T03:33:46.038Z,29.92
2017-07-09T03:34:46.075Z,29.9
2017-07-09T03:35:46.428Z,29.9
2017-07-09T03:36:46.145Z,29.9
2017-07-09T03:37:46.490Z,29.89
2017-07-09T03:38:45.870Z,29.87
2017-07-09T03:39:46.230Z,29.9
2017-07-09T03:40:46.254Z,29.83
2017-07-09T03:41:46.604Z,29.85
2017-07-09T03:42:46.322Z,29.83
2017-07-09T03:43:46.037Z,29.85
2017-07-09T03:44:46.703Z,29.86
2017-07-09T03:45:46.732Z,29.85
2017-07-09T03:46:46.748Z,29.82
2017-07-09T03:47:46.155Z,29.83
2017-07-09T03:48:46.502Z,29.86
2017-07-09T03:49:46.535Z,29.82
2017-07-09T03:50:46.880Z,29.82
2017-07-09T03:51:46.918Z,29.83
2017-07-09T03:52:46.954Z,29.83
2017-07-09T03:53:46.979Z,29.89
2017-07-09T03:54:46.372Z,29.86
2017-07-09T03:55:47.036Z,29.82
2017-07-09T03:56:46.755Z,29.79
2017-07-09T03:57:46.779Z,29.85
2017-07-09T03:58:46.807Z,29.83
2017-07-09T03:59:46.840Z,29.89
2017-07-09T04:00:46.877Z,29.8
2017-07-09T04:01:47.226Z,29.78
2017-07-09T04:02:46.935Z,29.73
2017-07-09T04:03:46.964Z,29.83
2017-07-09T04:04:46.996Z,29.78
2017-07-09T04:05:47.341Z,29.82
2017-07-09T04:06:47.378Z,29.85
2017-07-09T04:07:47.095Z,29.85
2017-07-09T04:08:47.116Z,29.94
2017-07-09T04:09:47.153Z,29.82
2017-07-09T04:10:47.510Z,29.86
2017-07-09T04:11:46.885Z,29.89
2017-07-09T04:12:47.239Z,29.85
2017-07-09T04:13:47.587Z,29.83
2017-07-09T04:14:47.301Z,29.8
2017-07-09T04:15:47.339Z,29.82
2017-07-09T04:16:47.667Z,29.74
2017-07-09T04:17:47.711Z,29.78
2017-07-09T04:18:47.425Z,29.85
2017-07-09T04:19:47.454Z,29.79
2017-07-09T04:20:47.162Z,29.86
2017-07-09T04:21:48.128Z,29.79
2017-07-09T04:22:47.547Z,29.78
2017-07-09T04:23:47.252Z,29.82
2017-07-09T04:24:47.937Z,29.78
2017-07-09T04:25:47.947Z,29.74
2017-07-09T04:26:48.243Z,29.8
2017-07-09T04:27:47.380Z,29.79
2017-07-09T04:28:48.048Z,29.78
2017-07-09T04:29:47.753Z,29.9
2017-07-09T04:30:47.792Z,29.74
2017-07-09T04:31:48.117Z,29.76
2017-07-09T04:32:47.852Z,29.76
2017-07-09T04:33:47.560Z,29.82
2017-07-09T04:34:47.906Z,29.9
2017-07-09T04:35:47.943Z,29.8
2017-07-09T04:36:47.956Z,29.8
2017-07-09T04:37:47.676Z,29.83
2017-07-09T04:38:48.353Z,29.86
2017-07-09T04:39:48.066Z,29.83
2017-07-09T04:40:47.778Z,29.92
2017-07-09T04:41:48.703Z,29.83
2017-07-09T04:42:48.484Z,29.87
2017-07-09T04:43:48.190Z,29.83
2017-07-09T04:44:48.219Z,29.85
2017-07-09T04:45:48.250Z,29.76
2017-07-09T04:46:48.856Z,29.8
2017-07-09T04:47:48.626Z,29.78
2017-07-09T04:48:48.662Z,29.8
2017-07-09T04:49:48.051Z,29.78
2017-07-09T04:50:48.723Z,29.83
2017-07-09T04:51:49.038Z,29.82
2017-07-09T04:52:48.145Z,29.85
2017-07-09T04:53:48.500Z,29.82
2017-07-09T04:54:48.513Z,29.78
2017-07-09T04:55:48.875Z,29.83
2017-07-09T04:56:48.839Z,29.76
2017-07-09T04:57:48.932Z,29.71
2017-07-09T04:58:48.653Z,29.78
2017-07-09T04:59:49.006Z,29.78
2017-07-09T05:00:48.711Z,29.78
2017-07-09T05:01:49.032Z,29.78
2017-07-09T05:02:48.449Z,29.74
2017-07-09T05:03:49.118Z,29.73
2017-07-09T05:04:49.150Z,29.71
2017-07-09T05:05:48.855Z,29.76
2017-07-09T05:06:49.147Z,29.82
2017-07-09T05:07:49.245Z,29.78
2017-07-09T05:08:48.949Z,29.83
2017-07-09T05:09:48.980Z,29.74
2017-07-09T05:10:49.336Z,29.76
2017-07-09T05:11:49.299Z,29.73
2017-07-09T05:12:49.393Z,29.76
2017-07-09T05:13:48.777Z,29.74
2017-07-09T05:14:49.131Z,29.76
2017-07-09T05:15:49.496Z,29.74
2017-07-09T05:16:49.496Z,29.7
2017-07-09T05:17:49.220Z,29.76
2017-07-09T05:18:49.259Z,29.73
2017-07-09T05:19:49.287Z,29.78
2017-07-09T05:20:49.320Z,29.79
2017-07-09T05:21:49.032Z,29.68
2017-07-09T05:22:49.369Z,29.78
2017-07-09T05:23:49.732Z,29.76
2017-07-09T05:24:49.119Z,29.71
2017-07-09T05:25:49.795Z,29.79
2017-07-09T05:26:49.181Z,29.71
2017-07-09T05:27:49.855Z,29.78
2017-07-09T05:28:49.559Z,29.79
2017-07-09T05:29:49.923Z,29.78
2017-07-09T05:30:49.626Z,29.73
2017-07-09T05:31:49.665Z,29.78
2017-07-09T05:32:49.362Z,29.79
2017-07-09T05:33:49.399Z,29.76
2017-07-09T05:34:50.062Z,29.73
2017-07-09T05:35:50.093Z,29.7
2017-07-09T05:36:49.804Z,29.79
2017-07-09T05:37:49.517Z,29.79
2017-07-09T05:38:50.190Z,29.83
2017-07-09T05:39:49.579Z,29.78
2017-07-09T05:40:49.924Z,29.71
2017-07-09T05:41:49.960Z,29.8
2017-07-09T05:42:49.989Z,29.73
2017-07-09T05:43:50.018Z,29.79
2017-07-09T05:44:50.051Z,29.78
2017-07-09T05:45:50.392Z,29.76
2017-07-09T05:46:49.793Z,29.79
2017-07-09T05:47:50.145Z,29.73
2017-07-09T05:48:49.851Z,29.78
2017-07-09T05:49:50.195Z,29.8
2017-07-09T05:50:50.232Z,29.79
2017-07-09T05:51:50.260Z,29.71
2017-07-09T05:52:50.293Z,29.76
2017-07-09T05:53:50.315Z,29.76
2017-07-09T05:54:50.360Z,29.74
2017-07-09T05:55:50.703Z,29.78
2017-07-09T05:56:50.422Z,29.79
2017-07-09T05:57:50.698Z,29.73
2017-07-09T05:58:50.158Z,29.73
2017-07-09T05:59:50.836Z,29.71
2017-07-09T06:00:50.543Z,29.68
2017-07-09T06:01:50.893Z,29.76
2017-07-09T06:02:50.521Z,29.78
2017-07-09T06:03:50.310Z,29.78
2017-07-09T06:04:50.668Z,29.78
2017-07-09T06:05:50.693Z,29.8
2017-07-09T06:06:50.729Z,29.78
2017-07-09T06:07:51.338Z,29.8
2017-07-09T06:08:50.480Z,29.86
2017-07-09T06:09:50.812Z,29.85
2017-07-09T06:10:50.843Z,29.76
2017-07-09T06:11:50.872Z,29.83
2017-07-09T06:12:51.470Z,29.9
2017-07-09T06:13:51.255Z,29.8
2017-07-09T06:14:50.970Z,29.86
2017-07-09T06:15:51.003Z,29.9
2017-07-09T06:16:50.708Z,29.92
2017-07-09T06:17:51.306Z,29.9
2017-07-09T06:18:51.079Z,29.89
2017-07-09T06:19:51.111Z,29.87
2017-07-09T06:20:51.144Z,29.89
2017-07-09T06:21:51.178Z,29.87
2017-07-09T06:22:51.510Z,29.92
2017-07-09T06:23:51.248Z,29.94
2017-07-09T06:24:51.276Z,29.92
2017-07-09T06:25:51.309Z,29.9
2017-07-09T06:26:51.338Z,29.94
2017-07-09T06:27:51.931Z,29.89
2017-07-09T06:28:51.712Z,29.94
2017-07-09T06:29:51.425Z,29.92
2017-07-09T06:30:51.777Z,29.85
2017-07-09T06:31:51.486Z,29.97
2017-07-09T06:32:52.090Z,30
2017-07-09T06:33:51.863Z,29.9
2017-07-09T06:34:51.250Z,29.83
2017-07-09T06:35:51.285Z,29.9
2017-07-09T06:36:51.643Z,30.02
2017-07-09T06:37:52.235Z,29.92
2017-07-09T06:38:52.036Z,29.92
2017-07-09T06:39:51.404Z,29.94
2017-07-09T06:40:51.758Z,29.87
2017-07-09T06:41:51.471Z,30.02
2017-07-09T06:42:51.755Z,29.92
2017-07-09T06:43:52.173Z,30.02
2017-07-09T06:44:52.205Z,29.97
2017-07-09T06:45:51.597Z,30
2017-07-09T06:46:51.939Z,30.02
2017-07-09T06:47:52.227Z,29.95
2017-07-09T06:48:52.004Z,30.02
2017-07-09T06:49:52.038Z,30.04
2017-07-09T06:50:52.366Z,29.97
2017-07-09T06:51:52.099Z,30.02
2017-07-09T06:52:52.380Z,30
2017-07-09T06:53:52.476Z,29.94
2017-07-09T06:54:52.177Z,30.08
2017-07-09T06:55:52.209Z,30
2017-07-09T06:56:52.251Z,30.02
2017-07-09T06:57:51.959Z,30.07
2017-07-09T06:58:52.633Z,30.1
2017-07-09T06:59:52.341Z,30
2017-07-09T07:00:52.374Z,30.1
2017-07-09T07:01:52.719Z,30.11
2017-07-09T07:02:52.431Z,30.1
2017-07-09T07:03:52.468Z,30.11
2017-07-09T07:04:52.489Z,30.08
2017-07-09T07:05:52.518Z,30.15
2017-07-09T07:06:52.947Z,30.11
2017-07-09T07:07:52.893Z,30.08
2017-07-09T07:08:52.611Z,30.16
2017-07-09T07:09:52.961Z,30.17
2017-07-09T07:10:52.675Z,30.11
2017-07-09T07:11:52.698Z,30.1
2017-07-09T07:12:52.743Z,30.08
2017-07-09T07:13:52.774Z,30.19
2017-07-09T07:14:52.801Z,30.08
2017-07-09T07:15:52.834Z,30.19
2017-07-09T07:16:53.171Z,30.1
2017-07-09T07:17:53.217Z,30.16
2017-07-09T07:18:53.248Z,30.19
2017-07-09T07:19:52.962Z,30.19
2017-07-09T07:20:53.311Z,30.16
2017-07-09T07:21:53.012Z,30.2
2017-07-09T07:22:53.055Z,30.16
2017-07-09T07:23:53.394Z,30.19
2017-07-09T07:24:53.113Z,30.26
2017-07-09T07:25:53.450Z,30.19
2017-07-09T07:26:53.480Z,30.26
2017-07-09T07:27:53.209Z,30.26
2017-07-09T07:28:52.910Z,30.22
2017-07-09T07:29:53.261Z,30.27
2017-07-09T07:30:52.971Z,30.23
2017-07-09T07:31:53.319Z,30.19
2017-07-09T07:32:53.353Z,30.22
2017-07-09T07:33:53.761Z,30.26
2017-07-09T07:34:53.731Z,30.31
2017-07-09T07:35:53.445Z,30.2
2017-07-09T07:36:53.471Z,30.24
2017-07-09T07:37:53.186Z,30.19
2017-07-09T07:38:53.545Z,30.29
2017-07-09T07:39:53.570Z,30.26
2017-07-09T07:40:53.920Z,30.17
2017-07-09T07:41:53.628Z,30.16
2017-07-09T07:42:53.657Z,30.22
2017-07-09T07:43:54.010Z,30.31
2017-07-09T07:44:53.405Z,30.27
2017-07-09T07:45:53.751Z,30.19
2017-07-09T07:46:54.100Z,30.17
2017-07-09T07:47:54.125Z,30.15
2017-07-09T07:48:53.523Z,30.16
2017-07-09T07:49:53.876Z,30.22
2017-07-09T07:50:53.900Z,30.16
2017-07-09T07:51:53.943Z,30.22
2017-07-09T07:52:53.964Z,30.19
2017-07-09T07:53:54.317Z,30.13
2017-07-09T07:54:54.356Z,30.2
2017-07-09T07:55:54.059Z,30.13
2017-07-09T07:56:54.417Z,30.17
2017-07-09T07:57:53.797Z,30.2
2017-07-09T07:58:54.470Z,30.2
2017-07-09T07:59:54.504Z,30.26
2017-07-09T08:00:54.229Z,30.16
2017-07-09T08:01:54.257Z,30.23
2017-07-09T08:02:54.274Z,30.13
2017-07-09T08:03:54.306Z,30.16
2017-07-09T08:04:54.331Z,30.11
2017-07-09T08:05:54.048Z,30.16
2017-07-09T08:06:54.081Z,30.16
2017-07-09T08:07:54.109Z,30.17
2017-07-09T08:08:54.707Z,30.2
2017-07-09T08:09:54.807Z,30.2
2017-07-09T08:10:54.204Z,30.16
2017-07-09T08:11:54.556Z,30.17
2017-07-09T08:12:54.262Z,30.19
2017-07-09T08:13:54.911Z,30.2
2017-07-09T08:14:54.642Z,30.22
2017-07-09T08:15:54.676Z,30.2
2017-07-09T08:16:54.697Z,30.16
2017-07-09T08:17:55.061Z,30.17
2017-07-09T08:18:54.698Z,30.27
2017-07-09T08:19:54.799Z,30.26
2017-07-09T08:20:54.837Z,30.23
2017-07-09T08:21:54.861Z,30.26
2017-07-09T08:22:55.185Z,30.22
2017-07-09T08:23:55.165Z,30.26
2017-07-09T08:24:54.946Z,30.31
2017-07-09T08:25:54.984Z,30.24
2017-07-09T08:26:55.325Z,30.34
2017-07-09T08:27:55.362Z,30.29
2017-07-09T08:28:55.367Z,30.29
2017-07-09T08:29:55.426Z,30.32
2017-07-09T08:30:55.452Z,30.29
2017-07-09T08:31:55.491Z,30.32
2017-07-09T08:32:55.199Z,30.35
2017-07-09T08:33:55.791Z,30.37
2017-07-09T08:34:55.261Z,30.39
2017-07-09T08:35:55.302Z,30.38
2017-07-09T08:36:55.651Z,30.38
2017-07-09T08:37:55.359Z,30.43
2017-07-09T08:38:56.020Z,30.35
2017-07-09T08:39:55.735Z,30.43
2017-07-09T08:40:55.442Z,30.46
2017-07-09T08:41:55.794Z,30.43
2017-07-09T08:42:55.183Z,30.42
2017-07-09T08:43:56.142Z,30.35
2017-07-09T08:44:55.889Z,30.47
2017-07-09T08:45:55.920Z,30.45
2017-07-09T08:46:55.955Z,30.47
2017-07-09T08:47:55.977Z,30.51
2017-07-09T08:48:56.260Z,30.58
2017-07-09T08:49:56.044Z,30.55
2017-07-09T08:50:55.438Z,30.47
2017-07-09T08:51:56.105Z,30.6
2017-07-09T08:52:55.812Z,30.54
2017-07-09T08:53:56.425Z,30.54
2017-07-09T08:54:56.197Z,30.61
2017-07-09T08:55:55.922Z,30.67
2017-07-09T08:56:55.935Z,30.57
2017-07-09T08:57:55.959Z,30.64
2017-07-09T08:58:55.685Z,30.69
2017-07-09T08:59:56.034Z,30.67
2017-07-09T09:00:56.067Z,30.55
2017-07-09T09:01:56.091Z,30.72
2017-07-09T09:02:56.131Z,30.73
2017-07-09T09:03:55.837Z,30.76
2017-07-09T09:04:56.518Z,30.79
2017-07-09T09:05:56.526Z,30.75
2017-07-09T09:06:56.259Z,30.83
2017-07-09T09:07:56.601Z,30.89
2017-07-09T09:08:56.313Z,30.76
2017-07-09T09:09:56.660Z,30.86
2017-07-09T09:10:56.374Z,30.75
2017-07-09T09:11:56.716Z,30.94
2017-07-09T09:12:56.440Z,30.94
2017-07-09T09:13:56.463Z,30.98
2017-07-09T09:14:56.526Z,30.83
2017-07-09T09:15:56.206Z,30.88
2017-07-09T09:16:56.240Z,30.91
2017-07-09T09:17:56.911Z,30.94
2017-07-09T09:18:56.929Z,30.95
2017-07-09T09:19:56.648Z,30.92
2017-07-09T09:20:56.688Z,31.02
2017-07-09T09:21:56.396Z,31.01
2017-07-09T09:22:57.052Z,31.02
2017-07-09T09:23:57.097Z,31.02
2017-07-09T09:24:57.142Z,31.07
2017-07-09T09:25:57.163Z,31.02
2017-07-09T09:26:56.874Z,31.04
2017-07-09T09:27:56.896Z,31.02
2017-07-09T09:28:56.934Z,31.04
2017-07-09T09:29:56.993Z,31.09
2017-07-09T09:30:56.995Z,31.1
2017-07-09T09:31:57.020Z,31.1
2017-07-09T09:32:57.378Z,31.07
2017-07-09T09:33:57.082Z,31.12
2017-07-09T09:34:57.438Z,31.13
2017-07-09T09:35:57.465Z,31.16
2017-07-09T09:36:57.180Z,31.19
2017-07-09T09:37:57.538Z,31.16
2017-07-09T09:38:57.562Z,31.14
2017-07-09T09:39:56.963Z,31.09
2017-07-09T09:40:57.298Z,31.1
2017-07-09T09:41:57.353Z,31.2
2017-07-09T09:42:57.681Z,31.17
2017-07-09T09:43:57.401Z,31.17
2017-07-09T09:44:57.736Z,31.19
2017-07-09T09:45:57.460Z,31.16
2017-07-09T09:46:57.813Z,31.14
2017-07-09T09:47:57.521Z,31.17
2017-07-09T09:48:57.554Z,31.1
2017-07-09T09:49:58.151Z,31.2
2017-07-09T09:50:57.999Z,31.16
2017-07-09T09:51:57.654Z,31.2
2017-07-09T09:52:57.362Z,31.29
2017-07-09T09:53:57.391Z,31.25
2017-07-09T09:54:58.312Z,31.26
2017-07-09T09:55:57.776Z,31.36
2017-07-09T09:56:57.806Z,31.39
2017-07-09T09:57:57.514Z,31.36
2017-07-09T09:58:58.192Z,31.5
2017-07-09T09:59:58.168Z,31.39
2017-07-09T10:00:57.939Z,31.47
2017-07-09T10:01:57.958Z,31.44
2017-07-09T10:02:58.314Z,31.47
2017-07-09T10:03:58.029Z,31.43
2017-07-09T10:04:58.308Z,31.48
2017-07-09T10:05:58.081Z,31.56
2017-07-09T10:06:58.442Z,31.51
2017-07-09T10:07:58.154Z,31.57
2017-07-09T10:08:58.497Z,31.54
2017-07-09T10:09:58.508Z,31.54
2017-07-09T10:10:58.557Z,31.61
2017-07-09T10:11:58.271Z,31.62
2017-07-09T10:12:58.308Z,31.65
2017-07-09T10:13:58.336Z,31.65
2017-07-09T10:14:58.616Z,31.62
2017-07-09T10:15:58.087Z,31.65
2017-07-09T10:16:58.750Z,31.65
2017-07-09T10:17:58.143Z,31.54
2017-07-09T10:19:27.976Z,31.66
2017-07-09T10:19:59.379Z,31.75
2017-07-09T10:20:58.875Z,31.66
2017-07-09T10:21:58.903Z,31.76
2017-07-09T10:22:58.935Z,31.66
2017-07-09T10:23:58.334Z,31.69
2017-07-09T10:24:59.005Z,31.76
2017-07-09T10:25:59.027Z,31.68
2017-07-09T10:26:58.738Z,31.73
2017-07-09T10:27:58.767Z,31.65
2017-07-09T10:28:58.809Z,31.78
2017-07-09T10:29:59.150Z,31.7
2017-07-09T10:30:58.867Z,31.75
2017-07-09T10:31:59.231Z,31.72
2017-07-09T10:32:58.933Z,31.8
2017-07-09T10:33:59.280Z,31.84
2017-07-09T10:34:58.990Z,31.73
2017-07-09T10:35:59.031Z,31.8
2017-07-09T10:36:59.056Z,31.81
2017-07-09T10:37:59.398Z,31.86
2017-07-09T10:38:59.458Z,31.88
2017-07-09T10:39:59.145Z,31.81
2017-07-09T10:40:59.500Z,31.8
2017-07-09T10:41:58.898Z,31.86
2017-07-09T10:42:59.561Z,31.86
2017-07-09T10:43:59.599Z,31.8
2017-07-09T10:44:59.318Z,31.78
2017-07-09T10:45:59.916Z,31.84
2017-07-09T10:46:59.686Z,31.85
2017-07-09T10:47:59.425Z,31.84
2017-07-09T10:48:59.746Z,31.78
2017-07-09T10:49:59.463Z,31.81
2017-07-09T10:50:59.431Z,31.86
2017-07-09T10:51:59.521Z,31.8
2017-07-09T10:52:59.237Z,31.88
2017-07-09T10:53:59.912Z,31.8
2017-07-09T10:54:59.938Z,31.95
2017-07-09T10:55:59.616Z,31.84
2017-07-09T10:56:59.689Z,31.85
2017-07-09T10:57:59.714Z,31.84
2017-07-09T10:58:59.751Z,31.86
2017-07-09T10:59:59.782Z,31.95
2017-07-09T11:01:00.110Z,31.89
2017-07-09T11:02:00.232Z,31.85
2017-07-09T11:03:00.193Z,32.01
2017-07-09T11:03:59.906Z,31.95
2017-07-09T11:05:00.251Z,31.88
2017-07-09T11:06:00.560Z,31.95
2017-07-09T11:07:00.342Z,32.07
2017-07-09T11:08:00.034Z,31.99
2017-07-09T11:09:00.385Z,32.03
2017-07-09T11:10:00.431Z,32.11
2017-07-09T11:11:00.390Z,31.95
2017-07-09T11:12:00.482Z,32.01
2017-07-09T11:13:00.198Z,32
2017-07-09T11:14:00.563Z,31.95
2017-07-09T11:15:00.255Z,32.01
2017-07-09T11:16:00.854Z,31.99
2017-07-09T11:17:00.673Z,31.95
2017-07-09T11:18:00.346Z,32.03
2017-07-09T11:19:00.066Z,31.99
2017-07-09T11:20:00.740Z,31.88
2017-07-09T11:21:01.013Z,31.99
2017-07-09T11:22:00.793Z,31.91
2017-07-09T11:23:00.525Z,31.92
2017-07-09T11:24:00.855Z,31.92
2017-07-09T11:25:00.896Z,31.93
2017-07-09T11:26:00.869Z,32
2017-07-09T11:27:00.637Z,31.85
2017-07-09T11:28:00.991Z,31.8
2017-07-09T11:29:00.702Z,31.85
2017-07-09T11:30:00.417Z,31.8
2017-07-09T11:31:01.061Z,31.93
2017-07-09T11:32:00.817Z,31.76
2017-07-09T11:33:00.574Z,31.81
2017-07-09T11:34:00.558Z,31.81
2017-07-09T11:35:00.893Z,31.85
2017-07-09T11:36:01.543Z,31.8
2017-07-09T11:37:01.283Z,31.86
2017-07-09T11:38:00.991Z,31.78
2017-07-09T11:39:01.025Z,31.85
2017-07-09T11:40:00.736Z,31.8
2017-07-09T11:41:00.763Z,31.85
2017-07-09T11:42:01.430Z,31.8
2017-07-09T11:43:01.152Z,31.84
2017-07-09T11:44:01.189Z,31.8
2017-07-09T11:45:01.210Z,31.78
2017-07-09T11:46:01.254Z,31.81
2017-07-09T11:47:01.283Z,31.81
2017-07-09T11:48:01.313Z,31.81
2017-07-09T11:49:01.668Z,31.85
2017-07-09T11:50:01.373Z,31.8
2017-07-09T11:51:01.434Z,31.84
2017-07-09T11:52:01.765Z,31.85
2017-07-09T11:53:01.464Z,31.81
2017-07-09T11:54:01.505Z,31.86
2017-07-09T11:55:01.532Z,31.8
2017-07-09T11:56:01.573Z,31.8
2017-07-09T11:57:01.591Z,31.78
2017-07-09T11:58:01.628Z,31.81
2017-07-09T11:59:01.656Z,31.84
2017-07-09T12:00:02.009Z,31.86
2017-07-09T12:01:01.399Z,31.8
2017-07-09T12:02:02.081Z,31.76
2017-07-09T12:03:01.789Z,31.84
2017-07-09T12:04:02.133Z,31.88
2017-07-09T12:05:01.842Z,31.8
2017-07-09T12:06:02.202Z,31.78
2017-07-09T12:07:02.240Z,31.84
2017-07-09T12:08:02.272Z,31.88
2017-07-09T12:09:01.976Z,31.85
2017-07-09T12:10:02.009Z,31.96
2017-07-09T12:11:02.040Z,31.99
2017-07-09T12:12:01.756Z,31.99
2017-07-09T12:13:02.101Z,31.86
2017-07-09T12:14:02.141Z,31.91
2017-07-09T12:15:01.852Z,31.92
2017-07-09T12:16:02.520Z,32.01
2017-07-09T12:17:02.243Z,31.95
2017-07-09T12:18:02.264Z,32.03
2017-07-09T12:19:02.614Z,32
2017-07-09T12:20:02.321Z,32.06
2017-07-09T12:21:02.684Z,32.04
2017-07-09T12:22:02.716Z,32.11
2017-07-09T12:23:02.741Z,32.08
2017-07-09T12:24:02.449Z,32.13
2017-07-09T12:25:02.201Z,32.26
2017-07-09T12:26:02.512Z,32.23
2017-07-09T12:27:02.233Z,32.29
2017-07-09T12:28:02.912Z,32.4
2017-07-09T12:29:02.935Z,32.4
2017-07-09T12:30:02.658Z,32.38
2017-07-09T12:31:02.681Z,32.41
2017-07-09T12:32:03.043Z,32.45
2017-07-09T12:33:02.746Z,32.44
2017-07-09T12:34:03.106Z,32.48
2017-07-09T12:35:03.139Z,32.59
2017-07-09T12:36:02.844Z,32.5
2017-07-09T12:37:02.869Z,32.57
2017-07-09T12:38:02.912Z,32.57
2017-07-09T12:39:03.261Z,32.62
2017-07-09T12:40:02.976Z,32.69
2017-07-09T12:41:03.030Z,32.78
2017-07-09T12:42:03.365Z,32.87
2017-07-09T12:43:03.394Z,32.94
2017-07-09T12:44:03.102Z,33.01
2017-07-09T12:45:03.455Z,33.03
2017-07-09T12:46:03.169Z,33.14
2017-07-09T12:47:03.513Z,33.04
2017-07-09T12:48:03.558Z,33.15
2017-07-09T12:49:03.262Z,33.23
2017-07-09T12:50:03.303Z,33.29
2017-07-09T12:51:03.713Z,33.22
2017-07-09T12:52:03.364Z,33.11
2017-07-09T12:53:03.722Z,33.18
2017-07-09T12:54:03.751Z,33.16
2017-07-09T12:55:03.785Z,33.09
2017-07-09T12:56:03.493Z,33.14
2017-07-09T12:57:03.567Z,33.07
2017-07-09T12:58:03.566Z,32.96